Time;durP1;ratioP1;P1;durP2;ratioP2;P2;SDS_P1;SDS_P2;PMS_P1;PMS_P2;Temp;Humidity;BMP_temperature;BMP_pressure;BME280_temperature;BME280_humidity;BME280_pressure;Samples;Min_cycle;Max_cycle;Signal;HPM_P1;HPM_P2
2021/11/20 00:00:53;;;;;;;21.13;15.03;;;6.80;99.90;;;;;;5032944;28;20902;-66
2021/11/20 00:03:19;;;;;;;19.43;14.10;;;6.80;99.90;;;;;;5026675;28;20957;-67
2021/11/20 00:05:47;;;;;;;20.87;14.70;;;6.80;99.90;;;;;;5031811;28;20812;-65
2021/11/20 00:08:13;;;;;;;15.93;13.03;;;6.80;99.90;;;;;;5029865;28;20472;-65
2021/11/20 00:10:42;;;;;;;19.80;13.70;;;6.90;99.90;;;;;;5031593;28;20485;-66
2021/11/20 00:13:09;;;;;;;15.50;12.30;;;6.80;99.90;;;;;;5032880;28;20186;-66
2021/11/20 00:15:38;;;;;;;15.03;11.93;;;6.80;99.90;;;;;;5031775;28;20961;-67
2021/11/20 00:18:05;;;;;;;15.63;10.47;;;6.80;99.90;;;;;;5032178;28;20491;-66
2021/11/20 00:20:33;;;;;;;14.67;12.00;;;6.80;99.90;;;;;;5032760;28;20465;-66
2021/11/20 00:22:59;;;;;;;18.87;12.80;;;6.80;99.90;;;;;;5032606;28;20453;-66
2021/11/20 00:25:41;;;;;;;14.93;11.97;;;6.80;99.90;;;;;;5033963;28;20777;-66
2021/11/20 00:28:07;;;;;;;18.23;13.60;;;6.80;99.90;;;;;;5036122;28;20635;-64
2021/11/20 00:30:54;;;;;;;14.77;12.30;;;6.80;99.90;;;;;;5032303;28;20796;-65
2021/11/20 00:33:24;;;;;;;16.87;12.80;;;6.80;99.90;;;;;;5033333;28;20429;-66
2021/11/20 00:35:52;;;;;;;16.80;12.40;;;6.80;99.90;;;;;;5035302;28;20448;-65
2021/11/20 00:38:18;;;;;;;18.93;12.93;;;6.80;99.90;;;;;;5038626;28;20528;-65
2021/11/20 00:40:47;;;;;;;18.57;12.90;;;6.80;99.90;;;;;;5030783;28;20456;-64
2021/11/20 00:43:15;;;;;;;20.20;15.10;;;6.80;99.90;;;;;;5035438;28;20875;-66
2021/11/20 00:45:42;;;;;;;16.87;13.87;;;6.80;99.90;;;;;;5036315;28;20444;-65
2021/11/20 00:48:08;;;;;;;19.53;14.30;;;6.70;99.90;;;;;;5037607;28;20429;-66
2021/11/20 00:50:36;;;;;;;20.43;14.93;;;6.80;99.90;;;;;;5041335;28;20464;-66
2021/11/20 00:53:03;;;;;;;18.17;14.80;;;6.70;99.90;;;;;;5031947;28;20449;-66
2021/11/20 00:55:29;;;;;;;20.80;15.03;;;6.70;99.90;;;;;;5031507;28;20436;-65
2021/11/20 00:57:57;;;;;;;22.23;15.17;;;6.70;99.90;;;;;;5026466;28;20866;-65
2021/11/20 01:00:27;;;;;;;18.60;13.90;;;6.70;99.90;;;;;;5031698;28;20766;-66
2021/11/20 01:02:53;;;;;;;22.97;16.67;;;6.70;99.90;;;;;;5032096;28;20448;-66
2021/11/20 01:05:19;;;;;;;21.03;13.07;;;6.70;99.90;;;;;;5030565;28;20539;-66
2021/11/20 01:07:45;;;;;;;21.40;13.83;;;6.70;99.90;;;;;;5031496;28;20182;-66
2021/11/20 01:10:14;;;;;;;18.57;13.90;;;6.70;99.90;;;;;;5031695;28;20435;-66
2021/11/20 01:12:40;;;;;;;23.87;16.13;;;6.60;99.90;;;;;;5031640;28;20476;-66
2021/11/20 01:15:12;;;;;;;21.20;13.80;;;6.60;99.90;;;;;;5031518;28;20440;-66
2021/11/20 01:17:38;;;;;;;20.80;14.97;;;6.50;99.90;;;;;;5029921;28;20460;-65
2021/11/20 01:20:06;;;;;;;21.90;16.10;;;6.60;99.90;;;;;;5031793;28;20436;-66
2021/11/20 01:22:32;;;;;;;18.77;12.97;;;6.60;99.90;;;;;;5031307;28;20190;-66
2021/11/20 01:24:58;;;;;;;21.50;16.27;;;6.60;99.90;;;;;;5031794;28;20945;-65
2021/11/20 01:27:24;;;;;;;22.03;15.03;;;6.60;99.90;;;;;;5031540;28;20433;-66
2021/11/20 01:29:51;;;;;;;23.53;18.30;;;6.70;99.90;;;;;;5031220;28;20655;-65
2021/11/20 01:32:16;;;;;;;23.37;15.37;;;6.60;99.90;;;;;;5031052;28;20456;-66
2021/11/20 01:34:42;;;;;;;20.17;15.00;;;6.60;99.90;;;;;;5031785;28;20481;-66
2021/11/20 01:37:09;;;;;;;20.27;14.23;;;6.70;99.90;;;;;;5031254;28;20197;-66
2021/11/20 01:39:37;;;;;;;19.53;15.37;;;6.80;99.90;;;;;;5031493;28;20174;-65
2021/11/20 01:42:14;;;;;;;19.87;14.37;;;6.90;99.90;;;;;;5031218;28;20546;-65
2021/11/20 01:44:44;;;;;;;19.23;14.10;;;6.90;99.90;;;;;;5014772;28;20444;-65
2021/11/20 01:47:24;;;;;;;18.60;14.10;;;6.80;99.90;;;;;;5031611;28;20425;-66
2021/11/20 01:49:56;;;;;;;19.33;13.90;;;6.70;99.90;;;;;;5029047;28;20949;-66
2021/11/20 01:52:40;;;;;;;21.70;15.17;;;6.80;99.90;;;;;;5031512;28;20961;-66
2021/11/20 01:55:40;;;;;;;23.27;15.93;;;6.80;99.90;;;;;;5031471;28;20432;-66
2021/11/20 01:58:26;;;;;;;21.33;16.00;;;6.70;99.90;;;;;;5031059;28;20433;-65
2021/11/20 02:01:07;;;;;;;22.87;16.40;;;6.70;99.90;;;;;;5031507;28;20433;-65
2021/11/20 02:04:08;;;;;;;22.03;15.93;;;6.70;99.90;;;;;;5027193;28;20425;-64
2021/11/20 02:06:59;;;;;;;22.80;16.40;;;6.70;99.90;;;;;;5027710;28;20790;-66
2021/11/20 02:09:30;;;;;;;24.20;16.30;;;6.80;99.90;;;;;;5030486;28;20428;-66
2021/11/20 02:12:01;;;;;;;25.50;16.83;;;6.80;99.90;;;;;;5031030;28;20452;-66
2021/11/20 02:14:28;;;;;;;22.87;16.43;;;6.70;99.90;;;;;;5031286;28;20432;-65
2021/11/20 02:17:03;;;;;;;23.30;17.07;;;6.70;99.90;;;;;;5031252;28;20612;-65
2021/11/20 02:19:36;;;;;;;26.20;18.10;;;6.70;99.90;;;;;;5031297;28;20435;-66
2021/11/20 02:22:01;;;;;;;24.60;16.20;;;6.60;99.90;;;;;;5031049;28;20453;-66
2021/11/20 02:24:27;;;;;;;23.93;18.60;;;6.60;99.90;;;;;;5030928;28;20563;-65
2021/11/20 02:26:52;;;;;;;23.97;16.40;;;6.60;99.90;;;;;;5031091;28;20541;-66
2021/11/20 02:29:18;;;;;;;27.40;17.03;;;6.70;99.90;;;;;;5033911;28;20193;-66
2021/11/20 02:31:48;;;;;;;21.20;15.53;;;6.80;99.90;;;;;;5034779;28;20618;-65
2021/11/20 02:34:16;;;;;;;27.63;17.40;;;6.80;99.90;;;;;;5034638;28;20519;-66
2021/11/20 02:36:42;;;;;;;22.53;17.33;;;6.80;99.90;;;;;;5034472;28;20555;-66
2021/11/20 02:39:18;;;;;;;26.10;16.60;;;6.70;99.90;;;;;;5032996;28;20527;-64
2021/11/20 02:41:49;;;;;;;25.33;17.03;;;6.80;99.90;;;;;;5034104;28;20221;-66
2021/11/20 02:44:16;;;;;;;29.37;17.50;;;6.80;99.90;;;;;;5034152;28;20433;-65
2021/11/20 02:46:47;;;;;;;30.30;19.00;;;6.80;99.90;;;;;;5025165;28;20437;-66
2021/11/20 02:49:13;;;;;;;27.27;17.33;;;6.80;99.90;;;;;;5033816;28;20491;-64
2021/11/20 02:51:44;;;;;;;27.37;17.13;;;6.80;99.90;;;;;;5034144;28;20461;-64
2021/11/20 02:54:22;;;;;;;24.07;17.30;;;6.80;99.90;;;;;;5033903;28;20444;-65
2021/11/20 02:56:52;;;;;;;24.57;17.10;;;6.80;99.90;;;;;;5033882;28;20811;-64
2021/11/20 02:59:18;;;;;;;24.20;16.67;;;6.80;99.90;;;;;;5033013;28;20552;-66
2021/11/20 03:01:44;;;;;;;28.67;18.10;;;6.80;99.90;;;;;;5033647;28;20448;-66
2021/11/20 03:04:13;;;;;;;23.70;15.73;;;6.80;99.90;;;;;;5033738;28;20519;-66
2021/11/20 03:06:39;;;;;;;27.57;18.60;;;6.80;99.90;;;;;;5032520;28;20437;-65
2021/11/20 03:09:06;;;;;;;27.70;17.77;;;6.70;99.90;;;;;;5033245;28;20848;-65
2021/11/20 03:11:32;;;;;;;32.90;19.20;;;6.70;99.90;;;;;;5033748;28;20650;-65
2021/11/20 03:14:04;;;;;;;29.77;18.03;;;6.70;99.90;;;;;;5032362;28;20490;-65
2021/11/20 03:16:35;;;;;;;30.77;18.80;;;6.70;99.90;;;;;;5033599;28;20527;-66
2021/11/20 03:19:01;;;;;;;28.63;19.60;;;6.70;99.90;;;;;;5033645;28;20532;-66
2021/11/20 03:21:26;;;;;;;30.83;19.20;;;6.80;99.90;;;;;;5032131;28;20543;-66
2021/11/20 03:23:54;;;;;;;26.00;17.00;;;6.80;99.90;;;;;;5033633;28;20171;-65
2021/11/20 03:26:20;;;;;;;32.63;19.20;;;6.80;99.90;;;;;;5033488;28;20178;-65
2021/11/20 03:28:46;;;;;;;25.30;16.20;;;6.80;99.90;;;;;;5033214;28;20447;-66
2021/11/20 03:31:11;;;;;;;28.17;17.63;;;6.80;99.90;;;;;;5033483;28;20201;-65
2021/11/20 03:33:37;;;;;;;27.10;20.53;;;6.70;99.90;;;;;;5033424;28;20182;-64
2021/11/20 03:36:04;;;;;;;35.20;21.00;;;6.70;99.90;;;;;;5032168;28;20222;-64
2021/11/20 03:38:29;;;;;;;28.23;18.30;;;6.80;99.90;;;;;;5033012;28;20437;-65
2021/11/20 03:40:55;;;;;;;27.97;19.40;;;6.90;99.90;;;;;;5032105;28;20435;-65
2021/11/20 03:43:21;;;;;;;27.17;16.30;;;6.90;99.90;;;;;;5032931;28;20540;-65
2021/11/20 03:45:46;;;;;;;30.13;18.07;;;6.80;99.90;;;;;;5033038;28;20181;-65
2021/11/20 03:48:13;;;;;;;28.27;16.80;;;6.90;99.90;;;;;;5032430;28;20459;-66
2021/11/20 03:50:41;;;;;;;28.13;17.83;;;6.90;99.90;;;;;;5032935;28;20178;-65
2021/11/20 03:53:06;;;;;;;24.87;18.30;;;6.90;99.90;;;;;;5033082;28;20431;-66
2021/11/20 03:55:36;;;;;;;26.70;18.13;;;7.00;99.90;;;;;;5033045;28;20823;-66
2021/11/20 03:58:03;;;;;;;25.50;15.53;;;7.10;99.90;;;;;;5032586;28;20715;-65
2021/11/20 04:00:34;;;;;;;27.23;17.03;;;7.20;99.90;;;;;;5033174;28;20467;-66
2021/11/20 04:03:00;;;;;;;28.53;18.40;;;7.10;99.90;;;;;;5032434;28;20460;-63
2021/11/20 04:05:26;;;;;;;24.00;15.73;;;7.10;99.90;;;;;;5031755;28;20433;-64
2021/11/20 04:07:52;;;;;;;24.90;15.53;;;7.20;99.90;;;;;;5032275;28;21018;-66
2021/11/20 04:10:19;;;;;;;25.07;17.97;;;7.10;99.90;;;;;;5032214;28;20566;-65
2021/11/20 04:12:46;;;;;;;22.00;15.10;;;7.10;99.90;;;;;;5032711;28;20198;-66
2021/11/20 04:15:15;;;;;;;23.10;15.57;;;7.10;99.90;;;;;;5032576;28;20448;-66
2021/11/20 04:17:41;;;;;;;26.00;15.57;;;7.10;99.90;;;;;;5031896;28;21099;-65
2021/11/20 04:20:10;;;;;;;24.70;16.60;;;7.00;99.90;;;;;;5031149;28;20448;-65
2021/11/20 04:22:37;;;;;;;25.23;17.40;;;7.10;99.90;;;;;;5032469;28;20662;-65
2021/11/20 04:25:07;;;;;;;23.37;16.13;;;7.20;99.90;;;;;;5032327;28;20437;-65
2021/11/20 04:27:33;;;;;;;24.30;14.60;;;7.20;99.90;;;;;;5032043;28;20436;-65
2021/11/20 04:29:59;;;;;;;27.83;15.80;;;7.30;99.90;;;;;;5032041;28;20547;-66
2021/11/20 04:32:25;;;;;;;22.60;15.47;;;7.20;99.90;;;;;;5032386;28;21252;-66
2021/11/20 04:34:51;;;;;;;18.90;13.73;;;7.20;99.90;;;;;;5032194;28;20283;-64
2021/11/20 04:37:17;;;;;;;20.77;14.90;;;7.10;99.90;;;;;;5031958;28;20210;-65
2021/11/20 04:39:42;;;;;;;21.43;13.13;;;7.00;99.90;;;;;;5032041;28;20876;-65
2021/11/20 04:42:08;;;;;;;19.63;14.17;;;7.00;99.90;;;;;;5017024;28;20548;-65
2021/11/20 04:44:34;;;;;;;21.10;15.50;;;7.10;99.90;;;;;;5031865;28;20197;-65
2021/11/20 04:46:59;;;;;;;21.00;15.07;;;7.20;99.90;;;;;;5031941;28;20217;-66
2021/11/20 04:49:25;;;;;;;18.87;13.43;;;7.20;99.90;;;;;;5031649;28;20183;-66
2021/11/20 04:51:50;;;;;;;24.87;13.83;;;7.30;99.90;;;;;;5031564;28;20197;-66
2021/11/20 04:54:17;;;;;;;23.60;14.00;;;7.40;99.90;;;;;;5031894;28;20644;-64
2021/11/20 04:56:42;;;;;;;22.00;13.67;;;7.30;99.90;;;;;;5032020;28;20201;-65
2021/11/20 04:59:08;;;;;;;19.40;12.57;;;7.30;99.90;;;;;;5030224;28;20433;-67
2021/11/20 05:01:33;;;;;;;19.33;12.53;;;7.40;99.90;;;;;;5031752;28;20286;-66
2021/11/20 05:04:01;;;;;;;20.03;12.43;;;7.40;99.90;;;;;;5031489;28;20189;-65
2021/11/20 05:06:27;;;;;;;19.33;15.03;;;7.50;99.90;;;;;;5031583;28;20656;-65
2021/11/20 05:08:53;;;;;;;18.20;12.73;;;7.50;99.90;;;;;;5031204;28;20425;-66
2021/11/20 05:11:19;;;;;;;20.60;12.63;;;7.50;99.90;;;;;;5031777;28;20460;-64
2021/11/20 05:13:46;;;;;;;19.63;13.83;;;7.40;99.90;;;;;;5031351;28;20433;-66
2021/11/20 05:16:12;;;;;;;21.77;14.10;;;7.20;99.90;;;;;;5031194;28;20305;-65
2021/11/20 05:18:38;;;;;;;16.47;12.77;;;7.10;99.90;;;;;;5030867;28;20524;-66
2021/11/20 05:21:04;;;;;;;18.80;13.33;;;7.20;99.90;;;;;;5031519;28;20335;-65
2021/11/20 05:23:32;;;;;;;16.47;12.20;;;7.30;99.90;;;;;;5031512;28;20512;-65
2021/11/20 05:25:58;;;;;;;20.50;13.50;;;7.30;99.90;;;;;;5031617;28;20715;-66
2021/11/20 05:28:24;;;;;;;15.47;12.20;;;7.40;99.90;;;;;;5030986;28;20946;-65
2021/11/20 05:30:51;;;;;;;16.50;11.70;;;7.40;99.90;;;;;;5031205;28;20448;-66
2021/11/20 05:33:19;;;;;;;20.33;12.77;;;7.50;99.90;;;;;;5031475;28;20214;-64
2021/11/20 05:35:45;;;;;;;15.70;10.87;;;7.50;99.90;;;;;;5031708;28;20937;-65
2021/11/20 05:38:11;;;;;;;15.67;11.50;;;7.40;99.90;;;;;;5029603;28;20441;-66
2021/11/20 05:40:38;;;;;;;14.70;10.73;;;7.40;99.90;;;;;;5031360;28;20805;-66
2021/11/20 05:43:13;;;;;;;16.93;11.37;;;7.40;99.90;;;;;;5030981;28;20449;-66
2021/11/20 05:45:42;;;;;;;15.57;10.93;;;7.50;99.90;;;;;;5031365;28;20428;-66
2021/11/20 05:48:07;;;;;;;16.57;11.90;;;7.50;99.90;;;;;;5030673;28;20465;-66
2021/11/20 05:50:35;;;;;;;15.30;11.60;;;7.40;99.90;;;;;;5031605;28;20511;-65
2021/11/20 05:53:01;;;;;;;17.90;13.20;;;7.40;99.90;;;;;;5030984;28;20225;-64
2021/11/20 05:55:31;;;;;;;16.13;11.70;;;7.40;99.90;;;;;;5031428;28;20425;-66
2021/11/20 05:57:57;;;;;;;16.13;11.13;;;7.30;99.90;;;;;;5030482;28;20456;-63
2021/11/20 06:00:29;;;;;;;23.77;13.17;;;7.30;99.90;;;;;;5031233;28;20433;-65
2021/11/20 06:02:57;;;;;;;17.50;12.00;;;7.30;99.90;;;;;;5031814;28;20202;-66
2021/11/20 06:05:23;;;;;;;18.20;13.00;;;7.20;99.90;;;;;;5035122;28;20795;-66
2021/11/20 06:07:49;;;;;;;19.50;11.90;;;7.20;99.90;;;;;;5034022;28;20855;-65
2021/11/20 06:10:14;;;;;;;17.83;12.07;;;7.20;99.90;;;;;;5035298;28;20436;-65
2021/11/20 06:12:40;;;;;;;19.40;11.27;;;7.20;99.90;;;;;;5035166;28;20593;-66
2021/11/20 06:15:06;;;;;;;15.07;10.63;;;7.20;99.90;;;;;;5034916;28;20194;-65
2021/11/20 06:17:32;;;;;;;18.70;12.20;;;7.20;99.90;;;;;;5035023;28;20598;-65
2021/11/20 06:19:57;;;;;;;19.80;12.50;;;7.30;99.90;;;;;;5034912;28;20440;-65
2021/11/20 06:22:24;;;;;;;15.73;11.00;;;7.20;99.90;;;;;;5033647;28;20247;-68
2021/11/20 06:24:50;;;;;;;15.93;11.33;;;7.30;99.90;;;;;;5034864;28;20178;-66
2021/11/20 06:27:17;;;;;;;18.43;11.47;;;7.30;99.90;;;;;;5034309;28;20990;-65
2021/11/20 06:29:43;;;;;;;18.20;12.20;;;7.30;99.90;;;;;;5034468;28;20575;-65
2021/11/20 06:32:09;;;;;;;16.40;12.00;;;7.40;99.90;;;;;;5034633;28;20444;-65
2021/11/20 06:34:35;;;;;;;14.63;10.77;;;7.40;99.90;;;;;;5034539;28;20443;-65
2021/11/20 06:37:01;;;;;;;19.03;13.70;;;7.40;99.90;;;;;;5034422;28;20202;-65
2021/11/20 06:39:27;;;;;;;14.30;10.90;;;7.40;99.90;;;;;;5034073;28;20265;-66
2021/11/20 06:41:54;;;;;;;15.80;11.27;;;7.40;99.90;;;;;;5033539;28;20198;-65
2021/11/20 06:44:20;;;;;;;14.93;10.70;;;7.40;99.90;;;;;;5033613;28;20436;-65
2021/11/20 06:46:46;;;;;;;17.73;11.80;;;7.40;99.90;;;;;;5034324;28;20468;-66
2021/11/20 06:49:12;;;;;;;20.13;13.50;;;7.40;99.90;;;;;;5034195;28;20864;-66
2021/11/20 06:51:38;;;;;;;16.83;12.30;;;7.40;99.90;;;;;;5034318;28;20213;-66
2021/11/20 06:54:04;;;;;;;13.60;10.93;;;7.30;99.90;;;;;;5034268;28;20441;-65
2021/11/20 06:56:40;;;;;;;17.20;11.03;;;7.30;99.90;;;;;;5034316;28;20697;-65
2021/11/20 06:59:15;;;;;;;17.47;12.10;;;7.20;99.90;;;;;;5032691;28;20508;-66
2021/11/20 07:01:40;;;;;;;19.30;11.40;;;7.10;99.90;;;;;;5034227;28;20440;-66
2021/11/20 07:04:11;;;;;;;18.40;12.80;;;7.20;99.90;;;;;;5034041;28;20520;-66
2021/11/20 07:06:46;;;;;;;20.13;12.57;;;7.20;99.90;;;;;;5034083;28;20182;-66
2021/11/20 07:09:12;;;;;;;20.90;12.83;;;7.00;99.90;;;;;;5033566;28;20437;-66
2021/11/20 07:11:37;;;;;;;19.07;11.77;;;7.00;99.90;;;;;;5032742;28;20539;-64
2021/11/20 07:14:04;;;;;;;18.67;12.47;;;7.00;99.90;;;;;;5033056;28;20274;-65
2021/11/20 07:16:30;;;;;;;16.10;11.50;;;7.00;99.90;;;;;;5033732;28;20198;-66
2021/11/20 07:18:56;;;;;;;20.43;12.77;;;7.00;99.90;;;;;;5033233;28;20819;-66
2021/11/20 07:21:25;;;;;;;20.40;12.87;;;6.90;99.90;;;;;;5033595;28;20201;-66
2021/11/20 07:23:52;;;;;;;19.50;11.77;;;6.90;99.90;;;;;;5033664;28;20424;-63
2021/11/20 07:26:18;;;;;;;18.20;12.40;;;6.90;99.90;;;;;;5033398;28;20452;-66
2021/11/20 07:28:43;;;;;;;17.70;12.83;;;7.00;99.90;;;;;;5033389;28;20437;-66
2021/11/20 07:31:09;;;;;;;16.57;12.27;;;7.10;99.90;;;;;;5033260;28;21790;-65
2021/11/20 07:33:35;;;;;;;17.63;12.80;;;7.10;99.90;;;;;;5032703;28;20182;-65
2021/11/20 07:36:03;;;;;;;16.17;11.27;;;7.10;99.90;;;;;;5033358;28;20198;-64
2021/11/20 07:38:36;;;;;;;18.07;12.70;;;7.10;99.90;;;;;;5033253;28;20648;-66
2021/11/20 07:41:03;;;;;;;15.83;11.50;;;7.10;99.90;;;;;;5031448;28;20460;-66
2021/11/20 07:43:28;;;;;;;17.90;12.80;;;7.20;99.90;;;;;;5032984;28;20506;-64
2021/11/20 07:45:54;;;;;;;18.43;11.30;;;7.20;99.90;;;;;;5032852;28;20429;-66
2021/11/20 07:48:22;;;;;;;15.07;10.80;;;7.20;99.90;;;;;;5033086;28;20181;-65
2021/11/20 07:50:50;;;;;;;20.07;13.43;;;7.30;99.90;;;;;;5032807;28;20179;-65
2021/11/20 07:53:17;;;;;;;18.30;13.10;;;7.20;99.90;;;;;;5022108;28;20968;-66
2021/11/20 07:55:44;;;;;;;16.30;11.93;;;7.10;99.90;;;;;;5032758;28;20436;-66
2021/11/20 07:58:10;;;;;;;17.80;12.33;;;7.30;99.90;;;;;;5032944;28;21006;-66
2021/11/20 08:00:37;;;;;;;16.33;11.40;;;7.40;99.90;;;;;;5031966;28;20544;-64
2021/11/20 08:03:04;;;;;;;16.70;11.87;;;7.20;99.90;;;;;;5032865;28;20682;-66
2021/11/20 08:05:30;;;;;;;15.10;12.37;;;7.20;99.90;;;;;;5032963;28;20428;-65
2021/11/20 08:07:56;;;;;;;15.67;10.93;;;7.20;99.90;;;;;;5032562;28;20926;-66
2021/11/20 08:10:25;;;;;;;14.83;11.77;;;7.20;99.90;;;;;;5033139;28;20538;-66
2021/11/20 08:12:50;;;;;;;17.83;12.23;;;7.10;99.90;;;;;;5032506;28;20460;-66
2021/11/20 08:15:16;;;;;;;16.17;11.67;;;7.20;99.90;;;;;;5032755;28;20432;-65
2021/11/20 08:17:42;;;;;;;16.60;12.00;;;7.20;99.90;;;;;;5032303;28;20202;-66
2021/11/20 08:20:11;;;;;;;14.90;11.90;;;7.20;99.90;;;;;;5032721;28;20440;-66
2021/11/20 08:22:37;;;;;;;15.00;12.57;;;7.20;99.90;;;;;;5032367;28;20561;-66
2021/11/20 08:25:04;;;;;;;15.67;11.27;;;7.10;99.90;;;;;;5032416;28;20478;-65
2021/11/20 08:27:30;;;;;;;17.70;12.33;;;7.00;99.90;;;;;;5039714;28;20443;-65
2021/11/20 08:29:56;;;;;;;14.97;10.13;;;7.10;99.90;;;;;;5042079;28;20436;-66
2021/11/20 08:32:22;;;;;;;15.90;10.90;;;7.10;99.90;;;;;;5044763;28;20217;-66
2021/11/20 08:34:48;;;;;;;16.90;12.00;;;7.10;99.90;;;;;;5042332;28;20197;-65
2021/11/20 08:37:14;;;;;;;14.83;10.93;;;7.10;99.90;;;;;;5034738;28;20914;-66
2021/11/20 08:39:39;;;;;;;22.73;16.50;;;7.20;99.90;;;;;;5030865;28;20174;-66
2021/11/20 08:42:06;;;;;;;16.87;12.93;;;7.20;99.90;;;;;;5034329;28;20232;-65
2021/11/20 08:44:32;;;;;;;19.37;12.90;;;7.40;99.90;;;;;;5031951;28;20182;-65
2021/11/20 08:46:58;;;;;;;16.50;11.13;;;7.50;99.90;;;;;;5031710;28;20960;-66
2021/11/20 08:49:23;;;;;;;15.90;11.63;;;7.60;99.90;;;;;;5031277;28;20433;-66
2021/11/20 08:51:52;;;;;;;15.23;11.30;;;7.60;99.90;;;;;;5032094;28;21048;-66
2021/11/20 08:54:18;;;;;;;20.13;11.67;;;7.60;99.90;;;;;;5028264;28;20655;-65
2021/11/20 08:56:47;;;;;;;17.50;11.67;;;7.50;99.90;;;;;;5032165;28;20984;-67
2021/11/20 08:59:15;;;;;;;17.27;11.60;;;7.50;99.90;;;;;;5029108;28;20440;-66
2021/11/20 09:01:44;;;;;;;13.77;11.67;;;7.50;99.90;;;;;;5029616;28;20448;-66
2021/11/20 09:04:20;;;;;;;16.60;11.77;;;7.40;99.90;;;;;;5031455;28;20424;-64
2021/11/20 09:07:12;;;;;;;16.13;11.30;;;7.50;99.90;;;;;;5032085;28;20443;-65
2021/11/20 09:09:49;;;;;;;18.13;12.10;;;7.40;99.90;;;;;;5012305;28;20444;-66
2021/11/20 09:12:30;;;;;;;16.50;11.77;;;7.40;99.90;;;;;;5027738;28;20593;-64
2021/11/20 09:15:00;;;;;;;14.90;11.07;;;7.50;99.90;;;;;;5030441;28;20428;-67
2021/11/20 09:17:26;;;;;;;14.27;11.40;;;7.50;99.90;;;;;;5030041;28;20527;-67
2021/11/20 09:19:52;;;;;;;16.37;9.73;;;7.50;99.90;;;;;;5031163;28;20437;-66
2021/11/20 09:22:17;;;;;;;12.93;10.00;;;7.50;99.90;;;;;;5031350;28;20480;-66
2021/11/20 09:24:45;;;;;;;13.93;10.53;;;7.60;99.90;;;;;;5031404;28;20206;-64
2021/11/20 09:27:12;;;;;;;14.13;9.10;;;7.80;99.90;;;;;;5030799;28;20712;-66
2021/11/20 09:29:38;;;;;;;11.47;8.57;;;7.70;99.90;;;;;;5031562;28;20989;-65
2021/11/20 09:32:04;;;;;;;12.13;9.13;;;7.70;99.90;;;;;;5031394;28;20457;-65
2021/11/20 09:34:30;;;;;;;17.37;12.27;;;7.70;99.90;;;;;;5031842;28;20428;-65
2021/11/20 09:36:58;;;;;;;14.40;9.17;;;7.70;99.90;;;;;;5031263;28;20460;-65
2021/11/20 09:39:27;;;;;;;11.90;8.83;;;7.70;99.90;;;;;;5035071;28;20198;-65
2021/11/20 09:42:26;;;;;;;14.03;9.03;;;7.80;99.90;;;;;;5034886;28;20452;-66
2021/11/20 09:44:56;;;;;;;14.60;8.27;;;7.80;99.90;;;;;;5029793;28;20468;-66
2021/11/20 09:47:33;;;;;;;12.27;7.90;;;7.80;99.90;;;;;;5035222;28;20464;-66
2021/11/20 09:50:15;;;;;;;10.93;6.77;;;7.90;99.90;;;;;;5035968;28;20794;-66
2021/11/20 09:52:41;;;;;;;10.77;8.00;;;8.00;99.90;;;;;;5035741;28;20436;-66
2021/11/20 09:55:13;;;;;;;9.93;7.23;;;7.90;99.90;;;;;;5035755;28;20838;-66
2021/11/20 09:57:49;;;;;;;7.50;5.70;;;7.90;99.90;;;;;;5035383;28;20827;-66
2021/11/20 10:00:49;;;;;;;9.90;7.30;;;7.90;99.90;;;;;;5035754;28;20420;-66
2021/11/20 10:03:40;;;;;;;8.03;6.60;;;7.80;99.90;;;;;;5035534;28;20421;-65
2021/11/20 10:06:11;;;;;;;8.63;6.00;;;7.70;99.90;;;;;;5034296;28;20428;-65
2021/11/20 10:08:41;;;;;;;5.97;4.77;;;7.60;99.90;;;;;;5035322;28;20423;-65
2021/11/20 10:11:23;;;;;;;10.60;5.67;;;7.60;99.90;;;;;;5035490;28;20447;-65
2021/11/20 10:14:00;;;;;;;7.30;5.80;;;7.60;99.90;;;;;;5035393;28;20514;-65
2021/11/20 10:16:44;;;;;;;7.60;5.73;;;7.70;99.90;;;;;;5035334;28;20456;-65
2021/11/20 10:19:20;;;;;;;7.03;6.27;;;7.80;99.90;;;;;;5035070;28;20466;-65
2021/11/20 10:21:58;;;;;;;7.87;5.43;;;7.90;99.90;;;;;;5035218;28;20446;-65
2021/11/20 10:24:34;;;;;;;8.53;5.00;;;8.00;99.90;;;;;;5035284;28;20831;-66
2021/11/20 10:27:22;;;;;;;8.70;5.97;;;8.00;99.90;;;;;;5035184;28;20416;-66
2021/11/20 10:30:09;;;;;;;6.57;5.50;;;8.10;99.90;;;;;;5035194;28;20466;-67
2021/11/20 10:32:51;;;;;;;6.20;4.80;;;8.10;99.90;;;;;;5034914;28;20444;-66
2021/11/20 10:35:26;;;;;;;5.30;4.40;;;8.20;99.90;;;;;;5035116;28;21014;-66
2021/11/20 10:38:20;;;;;;;4.10;3.70;;;8.10;99.90;;;;;;5034686;28;20531;-66
2021/11/20 10:40:56;;;;;;;4.73;4.27;;;8.10;99.90;;;;;;5034765;28;20437;-66
2021/11/20 10:43:26;;;;;;;5.30;4.33;;;8.10;99.90;;;;;;5057256;23;20507;-63
2021/11/20 10:46:00;;;;;;;6.23;5.57;;;8.20;99.90;;;;;;5035065;28;20456;-63
2021/11/20 10:48:28;;;;;;;4.50;4.10;;;8.20;99.90;;;;;;5034643;28;20897;-64
2021/11/20 10:51:21;;;;;;;6.17;4.90;;;8.20;99.90;;;;;;5035000;28;20414;-63
2021/11/20 10:54:04;;;;;;;5.63;4.23;;;8.40;99.90;;;;;;4999540;28;20433;-64
2021/11/20 10:56:49;;;;;;;5.93;5.33;;;8.50;99.90;;;;;;5015154;28;20461;-64
2021/11/20 10:59:27;;;;;;;9.83;5.37;;;8.50;99.90;;;;;;5013324;28;20425;-64
2021/11/20 11:02:24;;;;;;;6.57;5.40;;;8.50;99.90;;;;;;5014905;28;20536;-64
2021/11/20 11:05:09;;;;;;;7.20;6.50;;;8.40;99.90;;;;;;5014918;28;20429;-64
2021/11/20 11:07:59;;;;;;;8.00;7.20;;;8.40;99.90;;;;;;5014587;28;20422;-64
2021/11/20 11:10:40;;;;;;;11.47;7.93;;;8.40;99.90;;;;;;5014840;28;20432;-64
2021/11/20 11:13:13;;;;;;;21.93;7.77;;;8.20;99.90;;;;;;5014848;28;20449;-63
2021/11/20 11:15:48;;;;;;;10.77;7.13;;;8.40;99.90;;;;;;5014701;28;20489;-64
2021/11/20 11:18:23;;;;;;;8.60;6.87;;;8.40;99.90;;;;;;5014294;28;20422;-63
2021/11/20 11:20:59;;;;;;;8.00;6.70;;;8.40;99.90;;;;;;5014447;28;20492;-63
2021/11/20 11:23:57;;;;;;;10.50;7.23;;;8.20;99.90;;;;;;5014466;28;20430;-64
2021/11/20 11:26:28;;;;;;;10.43;6.53;;;8.10;99.90;;;;;;5014571;28;20951;-63
2021/11/20 11:29:01;;;;;;;9.30;8.47;;;8.20;99.90;;;;;;5014233;28;20449;-63
2021/11/20 11:31:32;;;;;;;10.30;7.67;;;8.20;99.90;;;;;;5014218;28;20438;-64
2021/11/20 11:34:16;;;;;;;7.13;6.43;;;8.30;99.90;;;;;;5014377;28;20930;-64
2021/11/20 11:36:53;;;;;;;7.80;7.03;;;8.30;99.90;;;;;;5014300;28;20996;-63
2021/11/20 11:39:59;;;;;;;11.33;8.43;;;8.20;99.90;;;;;;5014088;28;20468;-64
2021/11/20 11:42:37;;;;;;;9.37;7.33;;;8.20;99.90;;;;;;5013980;28;20884;-64
2021/11/20 11:45:34;;;;;;;10.30;8.50;;;8.20;99.90;;;;;;5014266;28;20475;-64
2021/11/20 11:48:26;;;;;;;7.77;6.93;;;8.30;99.90;;;;;;5014731;28;20501;-64
2021/11/20 11:51:13;;;;;;;12.30;8.40;;;8.40;99.90;;;;;;4996404;28;20429;-64
2021/11/20 11:53:54;;;;;;;10.33;7.77;;;8.50;99.90;;;;;;5014236;28;20405;-64
2021/11/20 11:56:37;;;;;;;8.20;7.40;;;8.50;99.90;;;;;;5014010;28;20488;-63
2021/11/20 11:59:20;;;;;;;9.93;8.27;;;8.70;99.90;;;;;;5013522;28;20422;-65
2021/11/20 12:01:52;;;;;;;9.40;8.03;;;8.50;99.90;;;;;;5013154;28;20438;-64
2021/11/20 12:04:33;;;;;;;7.90;7.07;;;8.30;99.90;;;;;;5013800;28;20479;-65
2021/11/20 12:07:10;;;;;;;11.47;8.93;;;8.10;99.90;;;;;;5013638;28;20915;-63
2021/11/20 12:09:47;;;;;;;15.10;11.77;;;8.00;99.90;;;;;;5013375;28;20422;-64
2021/11/20 12:12:31;;;;;;;11.13;7.87;;;8.10;99.90;;;;;;5013591;28;21000;-65
2021/11/20 12:15:18;;;;;;;9.40;7.33;;;8.20;99.90;;;;;;5013364;28;20508;-64
2021/11/20 12:18:09;;;;;;;9.13;7.50;;;8.20;99.90;;;;;;5011688;28;20483;-64
2021/11/20 12:20:57;;;;;;;8.70;7.00;;;8.10;99.90;;;;;;5013374;28;20761;-64
2021/11/20 12:23:47;;;;;;;8.60;7.27;;;8.00;99.90;;;;;;5013147;28;20445;-65
2021/11/20 12:26:39;;;;;;;8.50;7.70;;;7.90;99.90;;;;;;5013357;28;20831;-64
2021/11/20 12:29:20;;;;;;;9.13;7.77;;;8.10;99.90;;;;;;5012948;28;20413;-65
2021/11/20 12:31:45;;;;;;;6.57;5.97;;;8.20;99.90;;;;;;5013054;28;20457;-65
2021/11/20 12:34:28;;;;;;;7.43;6.73;;;8.30;99.90;;;;;;5013163;28;20850;-65
2021/11/20 12:37:05;;;;;;;9.90;7.63;;;8.30;99.90;;;;;;5013049;28;20226;-64
2021/11/20 12:39:50;;;;;;;12.50;7.87;;;8.40;99.90;;;;;;5012774;28;20840;-65
2021/11/20 12:42:16;;;;;;;7.53;6.63;;;8.50;99.90;;;;;;5013006;28;20453;-65
2021/11/20 12:45:00;;;;;;;8.97;6.87;;;8.50;99.90;;;;;;5011915;28;20561;-65
2021/11/20 12:47:53;;;;;;;9.23;8.27;;;8.50;99.90;;;;;;5012663;28;20539;-65
2021/11/20 12:50:33;;;;;;;10.70;7.10;;;8.50;99.90;;;;;;5012883;28;20444;-65
2021/11/20 12:53:14;;;;;;;9.60;8.60;;;8.60;99.90;;;;;;5012802;28;20441;-64
2021/11/20 12:56:01;;;;;;;9.03;7.53;;;8.30;99.90;;;;;;5012762;28;20516;-64
2021/11/20 12:58:49;;;;;;;11.77;7.10;;;8.20;99.90;;;;;;5012450;28;20436;-64
2021/11/20 13:01:18;;;;;;;8.43;7.40;;;8.20;99.90;;;;;;5011690;28;20544;-64